sensor_id;sensor_type;location;lat;lon;timestamp;P1;durP1;ratioP1;P2;durP2;ratioP2
16822;SDS011;8528;49.976;11.858;2023-06-14T00:01:58;5.20;;;4.53;;
16822;SDS011;8528;49.976;11.858;2023-06-14T00:04:25;5.77;;;4.63;;
16822;SDS011;8528;49.976;11.858;2023-06-14T00:06:52;6.00;;;4.70;;
16822;SDS011;8528;49.976;11.858;2023-06-14T00:09:20;6.60;;;4.87;;
16822;SDS011;8528;49.976;11.858;2023-06-14T00:11:47;5.67;;;4.37;;
16822;SDS011;8528;49.976;11.858;2023-06-14T00:14:14;5.93;;;4.57;;
16822;SDS011;8528;49.976;11.858;2023-06-14T00:16:41;6.50;;;4.90;;
16822;SDS011;8528;49.976;11.858;2023-06-14T00:19:09;5.40;;;4.90;;
16822;SDS011;8528;49.976;11.858;2023-06-14T00:21:37;5.00;;;4.60;;
16822;SDS011;8528;49.976;11.858;2023-06-14T00:24:05;5.13;;;4.63;;
16822;SDS011;8528;49.976;11.858;2023-06-14T00:26:33;8.00;;;5.17;;
16822;SDS011;8528;49.976;11.858;2023-06-14T00:28:59;4.87;;;4.40;;
16822;SDS011;8528;49.976;11.858;2023-06-14T00:31:26;7.20;;;5.20;;
16822;SDS011;8528;49.976;11.858;2023-06-14T00:33:56;5.73;;;4.60;;
16822;SDS011;8528;49.976;11.858;2023-06-14T00:36:24;5.50;;;4.87;;
16822;SDS011;8528;49.976;11.858;2023-06-14T00:38:51;5.57;;;4.87;;
16822;SDS011;8528;49.976;11.858;2023-06-14T00:41:18;5.40;;;4.90;;
16822;SDS011;8528;49.976;11.858;2023-06-14T00:43:45;5.20;;;4.70;;
16822;SDS011;8528;49.976;11.858;2023-06-14T00:46:13;5.63;;;5.13;;
16822;SDS011;8528;49.976;11.858;2023-06-14T00:48:41;5.93;;;5.33;;
16822;SDS011;8528;49.976;11.858;2023-06-14T00:51:08;6.03;;;5.40;;
16822;SDS011;8528;49.976;11.858;2023-06-14T00:53:38;6.30;;;5.70;;
16822;SDS011;8528;49.976;11.858;2023-06-14T00:56:07;5.93;;;4.87;;
16822;SDS011;8528;49.976;11.858;2023-06-14T00:58:35;5.60;;;5.10;;
16822;SDS011;8528;49.976;11.858;2023-06-14T01:01:02;6.33;;;4.87;;
16822;SDS011;8528;49.976;11.858;2023-06-14T01:03:29;7.17;;;4.60;;
16822;SDS011;8528;49.976;11.858;2023-06-14T01:06:40;5.60;;;5.00;;
16822;SDS011;8528;49.976;11.858;2023-06-14T01:12:17;6.03;;;4.90;;
16822;SDS011;8528;49.976;11.858;2023-06-14T01:14:56;5.90;;;5.30;;
16822;SDS011;8528;49.976;11.858;2023-06-14T01:17:25;7.30;;;5.27;;
16822;SDS011;8528;49.976;11.858;2023-06-14T01:20:01;7.40;;;5.23;;
16822;SDS011;8528;49.976;11.858;2023-06-14T01:22:50;6.77;;;5.23;;
16822;SDS011;8528;49.976;11.858;2023-06-14T01:25:34;5.83;;;5.23;;
16822;SDS011;8528;49.976;11.858;2023-06-14T01:28:16;7.33;;;5.43;;
16822;SDS011;8528;49.976;11.858;2023-06-14T01:31:04;5.63;;;5.03;;
16822;SDS011;8528;49.976;11.858;2023-06-14T01:33:35;6.50;;;5.10;;
16822;SDS011;8528;49.976;11.858;2023-06-14T01:36:06;7.20;;;4.93;;
16822;SDS011;8528;49.976;11.858;2023-06-14T01:38:45;5.77;;;5.27;;
16822;SDS011;8528;49.976;11.858;2023-06-14T01:41:16;5.60;;;5.00;;
16822;SDS011;8528;49.976;11.858;2023-06-14T01:43:47;5.97;;;5.17;;
16822;SDS011;8528;49.976;11.858;2023-06-14T01:46:32;5.60;;;5.03;;
16822;SDS011;8528;49.976;11.858;2023-06-14T01:49:16;10.53;;;5.00;;
16822;SDS011;8528;49.976;11.858;2023-06-14T01:51:55;6.33;;;5.73;;
16822;SDS011;8528;49.976;11.858;2023-06-14T01:54:26;10.63;;;8.63;;
16822;SDS011;8528;49.976;11.858;2023-06-14T01:56:53;15.50;;;13.90;;
16822;SDS011;8528;49.976;11.858;2023-06-14T01:59:20;10.80;;;8.90;;
16822;SDS011;8528;49.976;11.858;2023-06-14T02:01:47;16.33;;;10.43;;
16822;SDS011;8528;49.976;11.858;2023-06-14T02:04:15;7.83;;;6.23;;
16822;SDS011;8528;49.976;11.858;2023-06-14T02:06:42;7.77;;;6.63;;
16822;SDS011;8528;49.976;11.858;2023-06-14T02:09:09;16.97;;;13.80;;
16822;SDS011;8528;49.976;11.858;2023-06-14T02:11:36;12.20;;;8.33;;
16822;SDS011;8528;49.976;11.858;2023-06-14T02:14:03;8.00;;;6.50;;
16822;SDS011;8528;49.976;11.858;2023-06-14T02:16:30;8.23;;;7.43;;
16822;SDS011;8528;49.976;11.858;2023-06-14T02:18:57;7.07;;;6.03;;
16822;SDS011;8528;49.976;11.858;2023-06-14T02:21:24;6.40;;;5.67;;
16822;SDS011;8528;49.976;11.858;2023-06-14T02:23:55;9.43;;;5.73;;
16822;SDS011;8528;49.976;11.858;2023-06-14T02:26:22;8.97;;;5.90;;
16822;SDS011;8528;49.976;11.858;2023-06-14T02:28:49;6.93;;;5.77;;
16822;SDS011;8528;49.976;11.858;2023-06-14T02:31:16;7.50;;;5.87;;
16822;SDS011;8528;49.976;11.858;2023-06-14T02:33:43;6.83;;;5.87;;
16822;SDS011;8528;49.976;11.858;2023-06-14T02:36:10;6.70;;;6.00;;
16822;SDS011;8528;49.976;11.858;2023-06-14T02:38:37;7.97;;;6.10;;
16822;SDS011;8528;49.976;11.858;2023-06-14T02:41:04;6.90;;;6.20;;
16822;SDS011;8528;49.976;11.858;2023-06-14T02:43:32;7.63;;;6.13;;
16822;SDS011;8528;49.976;11.858;2023-06-14T02:45:59;6.43;;;5.73;;
16822;SDS011;8528;49.976;11.858;2023-06-14T02:48:26;8.20;;;5.83;;
16822;SDS011;8528;49.976;11.858;2023-06-14T02:50:54;6.60;;;5.90;;
16822;SDS011;8528;49.976;11.858;2023-06-14T02:53:23;6.23;;;5.57;;
16822;SDS011;8528;49.976;11.858;2023-06-14T02:55:50;9.70;;;5.90;;
16822;SDS011;8528;49.976;11.858;2023-06-14T02:58:18;8.27;;;6.70;;
16822;SDS011;8528;49.976;11.858;2023-06-14T03:00:45;16.33;;;7.07;;
16822;SDS011;8528;49.976;11.858;2023-06-14T03:03:13;11.53;;;6.80;;
16822;SDS011;8528;49.976;11.858;2023-06-14T03:05:42;9.90;;;6.33;;
16822;SDS011;8528;49.976;11.858;2023-06-14T03:08:16;10.73;;;7.27;;
16822;SDS011;8528;49.976;11.858;2023-06-14T03:10:46;8.83;;;6.30;;
16822;SDS011;8528;49.976;11.858;2023-06-14T03:13:16;8.97;;;6.97;;
16822;SDS011;8528;49.976;11.858;2023-06-14T03:15:43;10.93;;;7.23;;
16822;SDS011;8528;49.976;11.858;2023-06-14T03:18:11;11.60;;;7.70;;
16822;SDS011;8528;49.976;11.858;2023-06-14T03:20:38;7.33;;;6.50;;
16822;SDS011;8528;49.976;11.858;2023-06-14T03:23:05;7.17;;;6.47;;
16822;SDS011;8528;49.976;11.858;2023-06-14T03:25:33;8.30;;;6.50;;
16822;SDS011;8528;49.976;11.858;2023-06-14T03:28:02;6.70;;;5.93;;
16822;SDS011;8528;49.976;11.858;2023-06-14T03:30:29;8.33;;;6.33;;
16822;SDS011;8528;49.976;11.858;2023-06-14T03:33:00;7.07;;;5.83;;
16822;SDS011;8528;49.976;11.858;2023-06-14T03:35:28;6.53;;;5.73;;
16822;SDS011;8528;49.976;11.858;2023-06-14T03:37:55;9.13;;;6.00;;
16822;SDS011;8528;49.976;11.858;2023-06-14T03:40:22;6.63;;;5.67;;
16822;SDS011;8528;49.976;11.858;2023-06-14T03:42:53;10.50;;;5.90;;
16822;SDS011;8528;49.976;11.858;2023-06-14T03:45:21;9.23;;;5.93;;
16822;SDS011;8528;49.976;11.858;2023-06-14T03:47:48;6.73;;;5.43;;
16822;SDS011;8528;49.976;11.858;2023-06-14T03:50:17;7.37;;;5.77;;
16822;SDS011;8528;49.976;11.858;2023-06-14T03:52:45;7.03;;;6.00;;
16822;SDS011;8528;49.976;11.858;2023-06-14T03:55:16;6.67;;;5.47;;
16822;SDS011;8528;49.976;11.858;2023-06-14T03:57:45;8.93;;;6.00;;
16822;SDS011;8528;49.976;11.858;2023-06-14T04:00:13;7.70;;;5.70;;
16822;SDS011;8528;49.976;11.858;2023-06-14T04:02:41;8.53;;;5.50;;
16822;SDS011;8528;49.976;11.858;2023-06-14T04:05:10;9.97;;;6.20;;
16822;SDS011;8528;49.976;11.858;2023-06-14T04:07:38;8.47;;;5.93;;
16822;SDS011;8528;49.976;11.858;2023-06-14T04:10:12;5.73;;;5.13;;
16822;SDS011;8528;49.976;11.858;2023-06-14T04:12:39;6.13;;;5.53;;
16822;SDS011;8528;49.976;11.858;2023-06-14T04:15:09;10.43;;;6.17;;
16822;SDS011;8528;49.976;11.858;2023-06-14T04:17:47;6.90;;;6.17;;
16822;SDS011;8528;49.976;11.858;2023-06-14T04:20:14;6.77;;;5.20;;
16822;SDS011;8528;49.976;11.858;2023-06-14T04:22:43;7.83;;;6.10;;
16822;SDS011;8528;49.976;11.858;2023-06-14T04:25:10;6.77;;;6.07;;
16822;SDS011;8528;49.976;11.858;2023-06-14T04:27:39;6.73;;;5.67;;
16822;SDS011;8528;49.976;11.858;2023-06-14T04:30:06;6.90;;;6.03;;
16822;SDS011;8528;49.976;11.858;2023-06-14T04:32:35;9.60;;;7.63;;
16822;SDS011;8528;49.976;11.858;2023-06-14T04:35:06;7.37;;;6.63;;
16822;SDS011;8528;49.976;11.858;2023-06-14T04:37:35;10.57;;;8.67;;
16822;SDS011;8528;49.976;11.858;2023-06-14T04:40:07;6.77;;;6.13;;
16822;SDS011;8528;49.976;11.858;2023-06-14T04:42:38;9.20;;;8.33;;
16822;SDS011;8528;49.976;11.858;2023-06-14T04:45:07;11.03;;;10.10;;
16822;SDS011;8528;49.976;11.858;2023-06-14T04:47:35;6.97;;;5.50;;
16822;SDS011;8528;49.976;11.858;2023-06-14T04:50:05;7.63;;;5.10;;
16822;SDS011;8528;49.976;11.858;2023-06-14T04:52:34;5.23;;;4.73;;
16822;SDS011;8528;49.976;11.858;2023-06-14T04:55:02;10.53;;;9.63;;
16822;SDS011;8528;49.976;11.858;2023-06-14T04:57:30;19.70;;;17.90;;
16822;SDS011;8528;49.976;11.858;2023-06-14T04:59:57;8.50;;;7.60;;
16822;SDS011;8528;49.976;11.858;2023-06-14T05:02:28;7.57;;;5.97;;
16822;SDS011;8528;49.976;11.858;2023-06-14T05:04:58;7.67;;;5.63;;
16822;SDS011;8528;49.976;11.858;2023-06-14T05:07:28;6.03;;;5.43;;
16822;SDS011;8528;49.976;11.858;2023-06-14T05:09:55;8.00;;;7.20;;
16822;SDS011;8528;49.976;11.858;2023-06-14T05:12:22;6.67;;;5.87;;
16822;SDS011;8528;49.976;11.858;2023-06-14T05:14:50;5.97;;;5.37;;
16822;SDS011;8528;49.976;11.858;2023-06-14T05:17:21;5.73;;;4.90;;
16822;SDS011;8528;49.976;11.858;2023-06-14T05:19:49;4.90;;;4.40;;
16822;SDS011;8528;49.976;11.858;2023-06-14T05:22:16;5.50;;;5.00;;
16822;SDS011;8528;49.976;11.858;2023-06-14T05:24:44;5.33;;;4.63;;
16822;SDS011;8528;49.976;11.858;2023-06-14T05:27:14;6.67;;;5.30;;
16822;SDS011;8528;49.976;11.858;2023-06-14T05:29:41;7.20;;;5.20;;
16822;SDS011;8528;49.976;11.858;2023-06-14T05:32:08;5.77;;;4.70;;
16822;SDS011;8528;49.976;11.858;2023-06-14T05:34:36;5.13;;;4.63;;
16822;SDS011;8528;49.976;11.858;2023-06-14T05:37:03;14.63;;;6.00;;
16822;SDS011;8528;49.976;11.858;2023-06-14T05:39:30;5.57;;;5.00;;
16822;SDS011;8528;49.976;11.858;2023-06-14T05:41:57;5.60;;;5.03;;
16822;SDS011;8528;49.976;11.858;2023-06-14T05:44:24;5.20;;;4.67;;
16822;SDS011;8528;49.976;11.858;2023-06-14T05:46:53;8.10;;;4.57;;
16822;SDS011;8528;49.976;11.858;2023-06-14T05:49:20;5.28;;;4.78;;
16822;SDS011;8528;49.976;11.858;2023-06-14T05:51:48;5.70;;;4.60;;
16822;SDS011;8528;49.976;11.858;2023-06-14T05:54:16;4.47;;;4.07;;
16822;SDS011;8528;49.976;11.858;2023-06-14T05:56:43;4.78;;;3.80;;
16822;SDS011;8528;49.976;11.858;2023-06-14T05:59:10;5.03;;;3.83;;
16822;SDS011;8528;49.976;11.858;2023-06-14T06:01:37;6.03;;;4.32;;
16822;SDS011;8528;49.976;11.858;2023-06-14T06:04:09;5.90;;;4.55;;
16822;SDS011;8528;49.976;11.858;2023-06-14T06:06:40;6.38;;;4.35;;
16822;SDS011;8528;49.976;11.858;2023-06-14T06:11:54;4.90;;;3.70;;
16822;SDS011;8528;49.976;11.858;2023-06-14T06:14:24;4.25;;;3.92;;
16822;SDS011;8528;49.976;11.858;2023-06-14T06:16:51;6.68;;;4.45;;
16822;SDS011;8528;49.976;11.858;2023-06-14T06:19:41;4.60;;;4.20;;
16822;SDS011;8528;49.976;11.858;2023-06-14T06:22:06;4.88;;;3.75;;
16822;SDS011;8528;49.976;11.858;2023-06-14T06:24:34;4.88;;;3.75;;
16822;SDS011;8528;49.976;11.858;2023-06-14T06:27:09;4.10;;;3.70;;
16822;SDS011;8528;49.976;11.858;2023-06-14T06:29:45;3.63;;;3.30;;
16822;SDS011;8528;49.976;11.858;2023-06-14T06:32:23;3.95;;;3.65;;
16822;SDS011;8528;49.976;11.858;2023-06-14T06:34:50;3.78;;;3.38;;
16822;SDS011;8528;49.976;11.858;2023-06-14T06:37:19;4.13;;;3.72;;
16822;SDS011;8528;49.976;11.858;2023-06-14T06:39:46;3.55;;;3.25;;
16822;SDS011;8528;49.976;11.858;2023-06-14T06:42:17;4.20;;;3.80;;
16822;SDS011;8528;49.976;11.858;2023-06-14T06:44:46;4.50;;;4.05;;
16822;SDS011;8528;49.976;11.858;2023-06-14T06:47:13;8.95;;;3.88;;
16822;SDS011;8528;49.976;11.858;2023-06-14T06:49:54;3.67;;;3.20;;
16822;SDS011;8528;49.976;11.858;2023-06-14T06:52:24;3.45;;;3.15;;
16822;SDS011;8528;49.976;11.858;2023-06-14T06:54:57;4.82;;;3.33;;
16822;SDS011;8528;49.976;11.858;2023-06-14T06:57:24;6.13;;;3.25;;
16822;SDS011;8528;49.976;11.858;2023-06-14T07:00:00;4.43;;;3.10;;
16822;SDS011;8528;49.976;11.858;2023-06-14T07:02:27;4.82;;;3.50;;
16822;SDS011;8528;49.976;11.858;2023-06-14T07:05:00;5.07;;;2.95;;
16822;SDS011;8528;49.976;11.858;2023-06-14T07:07:33;3.67;;;2.80;;
16822;SDS011;8528;49.976;11.858;2023-06-14T07:10:35;4.10;;;2.97;;
16822;SDS011;8528;49.976;11.858;2023-06-14T07:13:01;3.55;;;3.08;;
16822;SDS011;8528;49.976;11.858;2023-06-14T07:15:31;4.18;;;2.95;;
16822;SDS011;8528;49.976;11.858;2023-06-14T07:17:58;3.50;;;3.20;;
16822;SDS011;8528;49.976;11.858;2023-06-14T07:20:29;4.25;;;3.03;;
16822;SDS011;8528;49.976;11.858;2023-06-14T07:23:00;3.78;;;3.17;;
16822;SDS011;8528;49.976;11.858;2023-06-14T07:25:27;3.15;;;2.88;;
16822;SDS011;8528;49.976;11.858;2023-06-14T07:27:54;3.30;;;3.00;;
16822;SDS011;8528;49.976;11.858;2023-06-14T07:30:25;4.57;;;2.83;;
16822;SDS011;8528;49.976;11.858;2023-06-14T07:33:12;2.70;;;2.50;;
16822;SDS011;8528;49.976;11.858;2023-06-14T07:35:49;4.55;;;2.55;;
16822;SDS011;8528;49.976;11.858;2023-06-14T07:41:16;3.45;;;2.90;;
16822;SDS011;8528;49.976;11.858;2023-06-14T07:43:44;3.05;;;2.78;;
16822;SDS011;8528;49.976;11.858;2023-06-14T07:46:16;4.35;;;2.78;;
16822;SDS011;8528;49.976;11.858;2023-06-14T07:48:44;6.43;;;2.83;;
16822;SDS011;8528;49.976;11.858;2023-06-14T07:51:29;6.10;;;3.38;;
16822;SDS011;8528;49.976;11.858;2023-06-14T07:54:04;4.57;;;2.80;;
16822;SDS011;8528;49.976;11.858;2023-06-14T07:59:44;4.10;;;2.40;;
16822;SDS011;8528;49.976;11.858;2023-06-14T08:02:24;7.65;;;2.83;;
16822;SDS011;8528;49.976;11.858;2023-06-14T08:05:02;3.65;;;2.53;;
16822;SDS011;8528;49.976;11.858;2023-06-14T08:07:46;2.45;;;2.25;;
16822;SDS011;8528;49.976;11.858;2023-06-14T08:11:11;2.33;;;2.13;;
16822;SDS011;8528;49.976;11.858;2023-06-14T08:13:51;2.35;;;2.10;;
16822;SDS011;8528;49.976;11.858;2023-06-14T08:19:53;4.28;;;2.53;;
16822;SDS011;8528;49.976;11.858;2023-06-14T08:22:31;2.67;;;2.30;;
16822;SDS011;8528;49.976;11.858;2023-06-14T08:25:08;2.60;;;2.10;;
16822;SDS011;8528;49.976;11.858;2023-06-14T08:27:41;4.68;;;2.13;;
16822;SDS011;8528;49.976;11.858;2023-06-14T08:30:38;9.60;;;3.42;;
16822;SDS011;8528;49.976;11.858;2023-06-14T08:33:10;7.63;;;3.90;;
16822;SDS011;8528;49.976;11.858;2023-06-14T08:35:45;3.75;;;2.45;;
16822;SDS011;8528;49.976;11.858;2023-06-14T08:42:02;2.40;;;2.10;;
16822;SDS011;8528;49.976;11.858;2023-06-14T08:44:57;2.55;;;1.98;;
16822;SDS011;8528;49.976;11.858;2023-06-14T08:47:37;2.53;;;2.33;;
16822;SDS011;8528;49.976;11.858;2023-06-14T08:50:09;8.38;;;2.47;;
16822;SDS011;8528;49.976;11.858;2023-06-14T08:52:56;2.95;;;2.20;;
16822;SDS011;8528;49.976;11.858;2023-06-14T08:55:38;5.10;;;2.17;;
16822;SDS011;8528;49.976;11.858;2023-06-14T08:58:26;2.88;;;1.98;;
16822;SDS011;8528;49.976;11.858;2023-06-14T09:00:55;2.10;;;1.90;;
16822;SDS011;8528;49.976;11.858;2023-06-14T09:03:24;3.90;;;2.00;;
16822;SDS011;8528;49.976;11.858;2023-06-14T09:05:56;2.75;;;1.90;;
16822;SDS011;8528;49.976;11.858;2023-06-14T09:08:26;2.30;;;2.00;;
16822;SDS011;8528;49.976;11.858;2023-06-14T09:10:57;3.13;;;1.88;;
16822;SDS011;8528;49.976;11.858;2023-06-14T09:13:26;2.20;;;2.00;;
16822;SDS011;8528;49.976;11.858;2023-06-14T09:15:57;2.85;;;1.98;;
16822;SDS011;8528;49.976;11.858;2023-06-14T09:18:35;3.97;;;1.98;;
16822;SDS011;8528;49.976;11.858;2023-06-14T09:21:04;1.70;;;1.60;;
16822;SDS011;8528;49.976;11.858;2023-06-14T09:23:41;2.13;;;1.92;;
16822;SDS011;8528;49.976;11.858;2023-06-14T09:26:10;1.77;;;1.65;;
16822;SDS011;8528;49.976;11.858;2023-06-14T09:28:42;3.75;;;2.00;;
16822;SDS011;8528;49.976;11.858;2023-06-14T09:31:14;1.92;;;1.75;;
16822;SDS011;8528;49.976;11.858;2023-06-14T09:33:49;3.28;;;2.10;;
16822;SDS011;8528;49.976;11.858;2023-06-14T09:36:18;2.15;;;1.98;;
16822;SDS011;8528;49.976;11.858;2023-06-14T09:38:51;2.17;;;1.90;;
16822;SDS011;8528;49.976;11.858;2023-06-14T09:41:20;3.25;;;2.10;;
16822;SDS011;8528;49.976;11.858;2023-06-14T09:43:57;6.13;;;2.00;;
16822;SDS011;8528;49.976;11.858;2023-06-14T09:46:30;4.63;;;2.53;;
16822;SDS011;8528;49.976;11.858;2023-06-14T09:48:58;3.60;;;1.92;;
16822;SDS011;8528;49.976;11.858;2023-06-14T09:51:46;3.10;;;2.00;;
16822;SDS011;8528;49.976;11.858;2023-06-14T09:54:27;2.63;;;2.10;;
16822;SDS011;8528;49.976;11.858;2023-06-14T09:56:57;6.25;;;2.25;;
16822;SDS011;8528;49.976;11.858;2023-06-14T09:59:26;2.85;;;2.00;;
16822;SDS011;8528;49.976;11.858;2023-06-14T10:02:00;3.10;;;2.08;;
16822;SDS011;8528;49.976;11.858;2023-06-14T10:04:43;5.25;;;2.67;;
16822;SDS011;8528;49.976;11.858;2023-06-14T10:07:27;4.50;;;2.40;;
16822;SDS011;8528;49.976;11.858;2023-06-14T10:10:01;3.03;;;2.40;;
16822;SDS011;8528;49.976;11.858;2023-06-14T10:12:32;2.85;;;2.30;;
16822;SDS011;8528;49.976;11.858;2023-06-14T10:18:17;3.00;;;2.13;;
16822;SDS011;8528;49.976;11.858;2023-06-14T10:21:13;4.47;;;2.10;;
16822;SDS011;8528;49.976;11.858;2023-06-14T10:24:29;2.53;;;2.03;;
16822;SDS011;8528;49.976;11.858;2023-06-14T10:27:25;2.33;;;2.15;;
16822;SDS011;8528;49.976;11.858;2023-06-14T10:30:30;2.30;;;2.10;;
16822;SDS011;8528;49.976;11.858;2023-06-14T10:33:22;2.40;;;2.20;;
16822;SDS011;8528;49.976;11.858;2023-06-14T10:35:49;2.10;;;1.90;;
16822;SDS011;8528;49.976;11.858;2023-06-14T10:38:56;2.30;;;2.10;;
16822;SDS011;8528;49.976;11.858;2023-06-14T10:41:28;5.05;;;2.25;;
16822;SDS011;8528;49.976;11.858;2023-06-14T10:46:46;2.38;;;2.03;;
16822;SDS011;8528;49.976;11.858;2023-06-14T10:52:15;2.92;;;2.17;;
16822;SDS011;8528;49.976;11.858;2023-06-14T10:57:52;5.57;;;2.53;;
16822;SDS011;8528;49.976;11.858;2023-06-14T11:00:25;2.97;;;2.25;;
16822;SDS011;8528;49.976;11.858;2023-06-14T11:05:56;8.60;;;5.57;;
16822;SDS011;8528;49.976;11.858;2023-06-14T11:11:22;3.92;;;2.83;;
16822;SDS011;8528;49.976;11.858;2023-06-14T11:13:55;3.58;;;2.55;;
16822;SDS011;8528;49.976;11.858;2023-06-14T11:16:25;3.10;;;2.83;;
16822;SDS011;8528;49.976;11.858;2023-06-14T11:19:12;3.40;;;2.75;;
16822;SDS011;8528;49.976;11.858;2023-06-14T11:21:40;11.18;;;10.48;;
16822;SDS011;8528;49.976;11.858;2023-06-14T11:24:09;3.35;;;2.92;;
16822;SDS011;8528;49.976;11.858;2023-06-14T11:26:43;4.97;;;3.05;;
16822;SDS011;8528;49.976;11.858;2023-06-14T11:29:37;3.05;;;2.58;;
16822;SDS011;8528;49.976;11.858;2023-06-14T11:32:21;2.63;;;2.00;;
16822;SDS011;8528;49.976;11.858;2023-06-14T11:35:07;2.30;;;2.10;;
16822;SDS011;8528;49.976;11.858;2023-06-14T11:37:36;2.38;;;2.17;;
16822;SDS011;8528;49.976;11.858;2023-06-14T11:40:06;2.85;;;2.33;;
16822;SDS011;8528;49.976;11.858;2023-06-14T11:42:36;3.90;;;2.28;;
16822;SDS011;8528;49.976;11.858;2023-06-14T11:45:47;1.90;;;1.80;;
16822;SDS011;8528;49.976;11.858;2023-06-14T11:48:40;2.22;;;2.03;;
16822;SDS011;8528;49.976;11.858;2023-06-14T11:51:08;2.45;;;2.10;;
16822;SDS011;8528;49.976;11.858;2023-06-14T11:53:35;2.20;;;2.00;;
16822;SDS011;8528;49.976;11.858;2023-06-14T11:56:29;4.00;;;1.95;;
16822;SDS011;8528;49.976;11.858;2023-06-14T11:59:15;2.78;;;1.83;;
16822;SDS011;8528;49.976;11.858;2023-06-14T12:02:02;3.60;;;1.98;;
16822;SDS011;8528;49.976;11.858;2023-06-14T12:04:43;3.00;;;2.10;;
16822;SDS011;8528;49.976;11.858;2023-06-14T12:07:47;2.08;;;1.98;;
16822;SDS011;8528;49.976;11.858;2023-06-14T12:10:30;3.35;;;2.10;;
16822;SDS011;8528;49.976;11.858;2023-06-14T12:13:10;2.20;;;2.00;;
16822;SDS011;8528;49.976;11.858;2023-06-14T12:18:53;1.95;;;1.70;;
16822;SDS011;8528;49.976;11.858;2023-06-14T12:21:41;2.72;;;1.98;;
16822;SDS011;8528;49.976;11.858;2023-06-14T12:24:12;2.40;;;2.13;;
16822;SDS011;8528;49.976;11.858;2023-06-14T12:26:43;2.65;;;2.05;;
16822;SDS011;8528;49.976;11.858;2023-06-14T12:29:37;6.32;;;2.72;;
16822;SDS011;8528;49.976;11.858;2023-06-14T12:32:12;1.90;;;1.73;;
16822;SDS011;8528;49.976;11.858;2023-06-14T12:34:54;2.30;;;1.80;;
16822;SDS011;8528;49.976;11.858;2023-06-14T12:37:39;2.40;;;2.08;;
16822;SDS011;8528;49.976;11.858;2023-06-14T12:40:42;2.88;;;1.70;;
16822;SDS011;8528;49.976;11.858;2023-06-14T12:43:20;2.28;;;1.90;;
16822;SDS011;8528;49.976;11.858;2023-06-14T12:45:47;2.25;;;2.03;;
16822;SDS011;8528;49.976;11.858;2023-06-14T12:48:14;2.63;;;2.05;;
16822;SDS011;8528;49.976;11.858;2023-06-14T12:50:41;2.55;;;2.10;;
16822;SDS011;8528;49.976;11.858;2023-06-14T12:53:08;2.47;;;2.10;;
16822;SDS011;8528;49.976;11.858;2023-06-14T12:55:35;2.43;;;2.00;;
16822;SDS011;8528;49.976;11.858;2023-06-14T12:58:03;2.73;;;2.40;;
16822;SDS011;8528;49.976;11.858;2023-06-14T13:00:37;3.50;;;2.47;;
16822;SDS011;8528;49.976;11.858;2023-06-14T13:03:29;2.83;;;2.53;;
16822;SDS011;8528;49.976;11.858;2023-06-14T13:05:56;5.33;;;3.43;;
16822;SDS011;8528;49.976;11.858;2023-06-14T13:08:23;5.80;;;3.40;;
16822;SDS011;8528;49.976;11.858;2023-06-14T13:10:51;2.93;;;2.07;;
16822;SDS011;8528;49.976;11.858;2023-06-14T13:13:18;4.77;;;2.43;;
16822;SDS011;8528;49.976;11.858;2023-06-14T13:15:45;3.20;;;2.70;;
16822;SDS011;8528;49.976;11.858;2023-06-14T13:18:12;4.37;;;3.00;;
16822;SDS011;8528;49.976;11.858;2023-06-14T13:20:39;6.07;;;2.77;;
16822;SDS011;8528;49.976;11.858;2023-06-14T13:23:09;7.40;;;3.90;;
16822;SDS011;8528;49.976;11.858;2023-06-14T13:25:42;11.83;;;3.83;;
16822;SDS011;8528;49.976;11.858;2023-06-14T13:28:15;19.87;;;4.87;;
16822;SDS011;8528;49.976;11.858;2023-06-14T13:30:47;5.30;;;2.50;;
16822;SDS011;8528;49.976;11.858;2023-06-14T13:33:19;3.10;;;2.80;;
16822;SDS011;8528;49.976;11.858;2023-06-14T13:36:08;2.83;;;2.63;;
16822;SDS011;8528;49.976;11.858;2023-06-14T13:38:46;3.67;;;2.57;;
16822;SDS011;8528;49.976;11.858;2023-06-14T13:41:14;2.87;;;2.50;;
16822;SDS011;8528;49.976;11.858;2023-06-14T13:43:53;2.50;;;2.30;;
16822;SDS011;8528;49.976;11.858;2023-06-14T13:46:23;5.33;;;2.53;;
16822;SDS011;8528;49.976;11.858;2023-06-14T13:49:07;3.03;;;2.50;;
16822;SDS011;8528;49.976;11.858;2023-06-14T13:51:39;2.80;;;2.40;;
16822;SDS011;8528;49.976;11.858;2023-06-14T13:54:14;3.67;;;2.63;;
16822;SDS011;8528;49.976;11.858;2023-06-14T13:57:19;4.50;;;2.40;;
16822;SDS011;8528;49.976;11.858;2023-06-14T14:00:53;2.90;;;2.70;;
16822;SDS011;8528;49.976;11.858;2023-06-14T14:03:24;5.33;;;2.60;;
16822;SDS011;8528;49.976;11.858;2023-06-14T14:05:51;3.63;;;2.40;;
16822;SDS011;8528;49.976;11.858;2023-06-14T14:08:24;8.13;;;4.33;;
16822;SDS011;8528;49.976;11.858;2023-06-14T14:11:02;5.70;;;3.27;;
16822;SDS011;8528;49.976;11.858;2023-06-14T14:13:43;3.70;;;3.13;;
16822;SDS011;8528;49.976;11.858;2023-06-14T14:16:18;4.93;;;3.00;;
16822;SDS011;8528;49.976;11.858;2023-06-14T14:18:46;6.23;;;4.80;;
16822;SDS011;8528;49.976;11.858;2023-06-14T14:21:56;4.77;;;3.90;;
16822;SDS011;8528;49.976;11.858;2023-06-14T14:24:23;5.07;;;4.57;;
16822;SDS011;8528;49.976;11.858;2023-06-14T14:26:56;4.27;;;3.40;;
16822;SDS011;8528;49.976;11.858;2023-06-14T14:29:44;3.90;;;3.60;;
16822;SDS011;8528;49.976;11.858;2023-06-14T14:35:19;6.43;;;3.00;;
16822;SDS011;8528;49.976;11.858;2023-06-14T14:37:50;2.87;;;2.63;;
16822;SDS011;8528;49.976;11.858;2023-06-14T14:40:16;4.47;;;2.97;;
16822;SDS011;8528;49.976;11.858;2023-06-14T14:42:43;3.47;;;3.17;;
16822;SDS011;8528;49.976;11.858;2023-06-14T14:45:10;3.40;;;3.10;;
16822;SDS011;8528;49.976;11.858;2023-06-14T14:47:37;3.37;;;2.63;;
16822;SDS011;8528;49.976;11.858;2023-06-14T14:50:05;3.13;;;2.83;;
16822;SDS011;8528;49.976;11.858;2023-06-14T14:52:35;2.70;;;2.50;;
16822;SDS011;8528;49.976;11.858;2023-06-14T14:55:02;3.37;;;3.07;;
16822;SDS011;8528;49.976;11.858;2023-06-14T14:57:29;3.80;;;3.30;;
16822;SDS011;8528;49.976;11.858;2023-06-14T14:59:57;4.83;;;2.97;;
16822;SDS011;8528;49.976;11.858;2023-06-14T15:02:24;3.37;;;2.90;;
16822;SDS011;8528;49.976;11.858;2023-06-14T15:04:51;5.03;;;2.93;;
16822;SDS011;8528;49.976;11.858;2023-06-14T15:07:18;8.00;;;3.00;;
16822;SDS011;8528;49.976;11.858;2023-06-14T15:09:44;3.20;;;2.90;;
16822;SDS011;8528;49.976;11.858;2023-06-14T15:12:11;3.63;;;2.60;;
16822;SDS011;8528;49.976;11.858;2023-06-14T15:14:38;3.37;;;2.90;;
16822;SDS011;8528;49.976;11.858;2023-06-14T15:17:05;5.00;;;3.00;;
16822;SDS011;8528;49.976;11.858;2023-06-14T15:19:33;3.30;;;3.00;;
16822;SDS011;8528;49.976;11.858;2023-06-14T15:22:02;3.73;;;3.43;;
16822;SDS011;8528;49.976;11.858;2023-06-14T15:24:30;4.90;;;3.20;;
16822;SDS011;8528;49.976;11.858;2023-06-14T15:27:08;4.53;;;2.83;;
16822;SDS011;8528;49.976;11.858;2023-06-14T15:29:37;5.47;;;3.20;;
16822;SDS011;8528;49.976;11.858;2023-06-14T15:32:05;5.60;;;3.43;;
16822;SDS011;8528;49.976;11.858;2023-06-14T15:34:32;3.40;;;3.10;;
16822;SDS011;8528;49.976;11.858;2023-06-14T15:36:59;5.77;;;3.60;;
16822;SDS011;8528;49.976;11.858;2023-06-14T15:39:26;3.23;;;2.93;;
16822;SDS011;8528;49.976;11.858;2023-06-14T15:41:53;3.50;;;3.20;;
16822;SDS011;8528;49.976;11.858;2023-06-14T15:44:20;7.07;;;3.70;;
16822;SDS011;8528;49.976;11.858;2023-06-14T15:46:47;3.57;;;3.00;;
16822;SDS011;8528;49.976;11.858;2023-06-14T15:49:16;6.50;;;3.57;;
16822;SDS011;8528;49.976;11.858;2023-06-14T15:51:44;4.90;;;3.70;;
16822;SDS011;8528;49.976;11.858;2023-06-14T15:54:11;3.63;;;3.33;;
16822;SDS011;8528;49.976;11.858;2023-06-14T15:56:38;3.50;;;3.20;;
16822;SDS011;8528;49.976;11.858;2023-06-14T15:59:05;3.43;;;3.13;;
16822;SDS011;8528;49.976;11.858;2023-06-14T16:01:33;3.77;;;3.20;;
16822;SDS011;8528;49.976;11.858;2023-06-14T16:04:00;6.10;;;3.63;;